LHA772 LPMA-EDDP
Flight info
| Callsign | LHA772 |
|---|---|
| Flight time | 3h 52m |
| Altitude | 34000 |
| Route | DEGUN DCT NARTA/N0455F320 DCT TOSDI N745 ZMR N976 DGO T429 LPA/N0452F340 T429 TOPTU DCT TOU DCT GAI DCT MEN DCT NINUN DCT LATAM DCT ETREK DCT LTP DCT SOPLO DCT OMASI DCT KINNI DCT SOSAL DCT KORED DCT BERSU DCT DITON/N0447F330 DCT LOKTA DCT TEDGO DCT HAREM DCT LOHRE N746 TIKNI T279 TAMEB T955 GOXLI |
| Aircraft | A321/M-SDE3FGHIRWY/LB1 |
Departure
| Time | 2026-05-04 12:50 |
|---|---|
| Airport | Cristiano Ronaldo International Airport (LPMA) |
Arrival
| Time | 2026-05-04 16:42 |
|---|---|
| Airport | Leipzig/Halle Airport (EDDP) |
| Time | Latitude | Longitude | Altitude | Speed | Heading |
|---|---|---|---|---|---|
| 2026-05-04 12:14 | 32.69334 | -16.77695 | 170 ft | 0 kts | 138° |
| 2026-05-04 12:43 | 32.69338 | -16.77699 | 169 ft | 4 kts | 138° |
| 2026-05-04 12:43 | 32.69357 | -16.77719 | 169 ft | 2 kts | 138° |
| 2026-05-04 12:43 | 32.69374 | -16.77734 | 169 ft | 4 kts | 170° |
| 2026-05-04 12:43 | 32.69393 | -16.77728 | 169 ft | 3 kts | 226° |
| 2026-05-04 12:44 | 32.69408 | -16.77710 | 169 ft | 0 kts | 226° |
| 2026-05-04 12:45 | 32.69407 | -16.77711 | 169 ft | 1 kts | 226° |
| 2026-05-04 12:45 | 32.69392 | -16.77730 | 169 ft | 7 kts | 226° |
| 2026-05-04 12:46 | 32.69328 | -16.77806 | 169 ft | 16 kts | 227° |
| 2026-05-04 12:46 | 32.69288 | -16.77926 | 169 ft | 16 kts | 269° |
| 2026-05-04 12:46 | 32.69275 | -16.78040 | 168 ft | 14 kts | 242° |
| 2026-05-04 12:46 | 32.69204 | -16.78130 | 165 ft | 16 kts | 225° |
| 2026-05-04 12:47 | 32.69114 | -16.78230 | 160 ft | 19 kts | 222° |
| 2026-05-04 12:47 | 32.69013 | -16.78347 | 154 ft | 20 kts | 226° |
| 2026-05-04 12:47 | 32.68900 | -16.78419 | 153 ft | 17 kts | 225° |
| 2026-05-04 12:47 | 32.68935 | -16.78448 | 153 ft | 11 kts | 52° |
| 2026-05-04 12:48 | 32.68952 | -16.78424 | 153 ft | 0 kts | 45° |
| 2026-05-04 12:49 | 32.69090 | -16.78260 | 159 ft | 63 kts | 44° |
| 2026-05-04 12:49 | 32.69563 | -16.77706 | 175 ft | 126 kts | 45° |
| 2026-05-04 12:50 | 32.70315 | -16.76820 | 207 ft | 177 kts | 46° |
| 2026-05-04 12:50 | 32.71165 | -16.75804 | 1014 ft | 171 kts | 51° |
| 2026-05-04 12:50 | 32.71564 | -16.74497 | 1682 ft | 178 kts | 97° |
| 2026-05-04 12:50 | 32.71110 | -16.73094 | 1978 ft | 191 kts | 118° |
| 2026-05-04 12:51 | 32.70525 | -16.71596 | 2122 ft | 209 kts | 115° |
| 2026-05-04 12:51 | 32.69935 | -16.69943 | 2237 ft | 227 kts | 114° |
| 2026-05-04 12:51 | 32.69306 | -16.68121 | 2380 ft | 250 kts | 113° |
| 2026-05-04 12:51 | 32.68645 | -16.66160 | 2860 ft | 259 kts | 113° |
| 2026-05-04 12:52 | 32.67977 | -16.64152 | 3398 ft | 264 kts | 113° |
| 2026-05-04 12:52 | 32.67303 | -16.62114 | 3957 ft | 267 kts | 112° |
| 2026-05-04 12:52 | 32.66624 | -16.60052 | 4547 ft | 269 kts | 112° |
| 2026-05-04 12:52 | 32.65988 | -16.57948 | 5074 ft | 273 kts | 104° |
| 2026-05-04 12:53 | 32.65856 | -16.55689 | 5626 ft | 278 kts | 84° |
| 2026-05-04 12:53 | 32.66367 | -16.53475 | 6173 ft | 281 kts | 64° |
| 2026-05-04 12:53 | 32.67483 | -16.51569 | 6675 ft | 284 kts | 44° |
| 2026-05-04 12:53 | 32.68917 | -16.49942 | 7182 ft | 286 kts | 43° |
| 2026-05-04 12:54 | 32.70366 | -16.48306 | 7686 ft | 289 kts | 43° |
| 2026-05-04 12:54 | 32.71826 | -16.46655 | 8195 ft | 291 kts | 43° |
| 2026-05-04 12:54 | 32.73277 | -16.45007 | 8766 ft | 294 kts | 43° |
| 2026-05-04 12:54 | 32.74758 | -16.43321 | 9369 ft | 296 kts | 43° |
| 2026-05-04 12:55 | 32.76254 | -16.41615 | 9888 ft | 300 kts | 42° |
| 2026-05-04 12:55 | 32.77766 | -16.39885 | 10284 ft | 306 kts | 42° |
| 2026-05-04 12:55 | 32.79340 | -16.38082 | 10404 ft | 323 kts | 42° |
| 2026-05-04 12:55 | 32.80999 | -16.36180 | 10530 ft | 340 kts | 43° |
| 2026-05-04 12:56 | 32.82736 | -16.34188 | 10654 ft | 354 kts | 43° |
| 2026-05-04 12:56 | 32.84544 | -16.32118 | 10776 ft | 368 kts | 43° |
| 2026-05-04 12:56 | 32.86425 | -16.29967 | 10904 ft | 381 kts | 43° |
| 2026-05-04 12:56 | 32.88356 | -16.27761 | 11222 ft | 387 kts | 43° |
| 2026-05-04 12:57 | 32.90300 | -16.25534 | 11631 ft | 389 kts | 43° |
| 2026-05-04 12:57 | 32.92256 | -16.23290 | 12038 ft | 392 kts | 43° |
| 2026-05-04 12:57 | 32.94227 | -16.21026 | 12424 ft | 395 kts | 43° |
| 2026-05-04 12:57 | 32.96211 | -16.18743 | 12822 ft | 398 kts | 43° |
| 2026-05-04 12:58 | 32.98209 | -16.16442 | 13216 ft | 401 kts | 43° |
| 2026-05-04 12:58 | 33.00218 | -16.14125 | 13618 ft | 404 kts | 43° |
| 2026-05-04 12:58 | 33.02240 | -16.11792 | 14000 ft | 406 kts | 43° |
| 2026-05-04 12:58 | 33.04276 | -16.09440 | 14357 ft | 409 kts | 43° |
| 2026-05-04 12:59 | 33.06328 | -16.07075 | 14722 ft | 411 kts | 43° |
| 2026-05-04 12:59 | 33.08392 | -16.04698 | 15081 ft | 414 kts | 42° |
| 2026-05-04 12:59 | 33.10468 | -16.02309 | 15431 ft | 416 kts | 42° |
| 2026-05-04 12:59 | 33.12552 | -15.99906 | 15768 ft | 418 kts | 43° |
| 2026-05-04 13:00 | 33.14644 | -15.97485 | 16123 ft | 420 kts | 42° |
| 2026-05-04 13:00 | 33.16743 | -15.95048 | 16461 ft | 422 kts | 42° |
| 2026-05-04 13:00 | 33.18823 | -15.92632 | 16821 ft | 424 kts | 43° |
| 2026-05-04 13:00 | 33.20940 | -15.90173 | 17210 ft | 425 kts | 42° |
| 2026-05-04 13:01 | 33.23066 | -15.87705 | 17537 ft | 428 kts | 42° |
| 2026-05-04 13:01 | 33.25207 | -15.85226 | 17847 ft | 430 kts | 42° |
| 2026-05-04 13:01 | 33.27360 | -15.82734 | 18154 ft | 432 kts | 42° |
| 2026-05-04 13:01 | 33.29532 | -15.80237 | 18448 ft | 434 kts | 41° |
| 2026-05-04 13:02 | 33.31752 | -15.77779 | 18714 ft | 436 kts | 40° |
| 2026-05-04 13:02 | 33.34015 | -15.75351 | 18979 ft | 438 kts | 39° |
| 2026-05-04 13:02 | 33.36303 | -15.72936 | 19239 ft | 440 kts | 39° |
| 2026-05-04 13:02 | 33.38606 | -15.70510 | 19502 ft | 442 kts | 39° |
| 2026-05-04 13:03 | 33.40914 | -15.68067 | 19769 ft | 444 kts | 39° |
| 2026-05-04 13:03 | 33.43229 | -15.65603 | 20042 ft | 446 kts | 39° |
| 2026-05-04 13:03 | 33.45578 | -15.63086 | 20347 ft | 449 kts | 39° |
| 2026-05-04 13:03 | 33.47906 | -15.60579 | 20610 ft | 451 kts | 40° |
| 2026-05-04 13:04 | 33.49453 | -15.58910 | 20796 ft | 453 kts | 40° |
| 2026-05-04 13:04 | 33.52562 | -15.55552 | 21151 ft | 455 kts | 40° |
| 2026-05-04 13:04 | 33.54155 | -15.53834 | 21329 ft | 457 kts | 39° |
| 2026-05-04 13:04 | 33.56522 | -15.51283 | 21575 ft | 459 kts | 39° |
| 2026-05-04 13:05 | 33.59673 | -15.47887 | 21917 ft | 461 kts | 39° |
| 2026-05-04 13:05 | 33.62062 | -15.45306 | 22159 ft | 463 kts | 39° |
| 2026-05-04 13:05 | 33.63682 | -15.43555 | 22326 ft | 464 kts | 39° |
| 2026-05-04 13:05 | 33.66086 | -15.40955 | 22579 ft | 466 kts | 39° |
| 2026-05-04 13:06 | 33.68500 | -15.38341 | 22824 ft | 468 kts | 39° |
| 2026-05-04 13:06 | 33.70925 | -15.35712 | 23051 ft | 470 kts | 39° |
| 2026-05-04 13:06 | 33.73358 | -15.33072 | 23291 ft | 472 kts | 39° |
| 2026-05-04 13:06 | 33.75801 | -15.30423 | 23521 ft | 474 kts | 39° |
| 2026-05-04 13:07 | 33.78255 | -15.27761 | 23764 ft | 476 kts | 39° |
| 2026-05-04 13:07 | 33.80682 | -15.25126 | 23956 ft | 478 kts | 39° |
| 2026-05-04 13:07 | 33.83150 | -15.22443 | 24161 ft | 479 kts | 39° |
| 2026-05-04 13:07 | 33.85633 | -15.19745 | 24364 ft | 481 kts | 39° |
| 2026-05-04 13:08 | 33.88117 | -15.17042 | 24559 ft | 482 kts | 39° |
| 2026-05-04 13:08 | 33.90607 | -15.14325 | 24752 ft | 484 kts | 39° |
| 2026-05-04 13:08 | 33.93105 | -15.11596 | 24944 ft | 485 kts | 39° |
| 2026-05-04 13:08 | 33.95607 | -15.08864 | 25133 ft | 487 kts | 39° |
| 2026-05-04 13:09 | 33.98118 | -15.06119 | 25325 ft | 488 kts | 39° |
| 2026-05-04 13:09 | 34.00636 | -15.03362 | 25503 ft | 490 kts | 39° |
| 2026-05-04 13:09 | 34.03157 | -15.00596 | 25679 ft | 491 kts | 39° |
| 2026-05-04 13:09 | 34.05688 | -14.97818 | 25838 ft | 492 kts | 39° |
| 2026-05-04 13:10 | 34.08222 | -14.95036 | 26012 ft | 494 kts | 39° |
| 2026-05-04 13:10 | 34.10767 | -14.92246 | 26171 ft | 495 kts | 38° |
| 2026-05-04 13:10 | 34.13321 | -14.89448 | 26319 ft | 496 kts | 38° |
| 2026-05-04 13:10 | 34.15880 | -14.86641 | 26460 ft | 498 kts | 39° |
| 2026-05-04 13:11 | 34.18443 | -14.83825 | 26602 ft | 499 kts | 39° |
| 2026-05-04 13:11 | 34.21004 | -14.81006 | 26806 ft | 498 kts | 39° |
| 2026-05-04 13:11 | 34.23562 | -14.78183 | 27004 ft | 498 kts | 39° |
| 2026-05-04 13:11 | 34.26118 | -14.75356 | 27200 ft | 498 kts | 39° |
| 2026-05-04 13:12 | 34.28675 | -14.72533 | 27392 ft | 498 kts | 38° |
| 2026-05-04 13:12 | 34.31230 | -14.69712 | 27578 ft | 498 kts | 38° |
| 2026-05-04 13:12 | 34.33785 | -14.66888 | 27770 ft | 497 kts | 38° |
| 2026-05-04 13:12 | 34.36339 | -14.64063 | 27970 ft | 497 kts | 38° |
| 2026-05-04 13:13 | 34.38892 | -14.61234 | 28148 ft | 498 kts | 38° |
| 2026-05-04 13:13 | 34.41443 | -14.58404 | 28319 ft | 498 kts | 38° |
| 2026-05-04 13:13 | 34.44001 | -14.55567 | 28508 ft | 498 kts | 38° |
| 2026-05-04 13:13 | 34.46559 | -14.52728 | 28657 ft | 499 kts | 38° |
| 2026-05-04 13:14 | 34.49114 | -14.49883 | 28855 ft | 499 kts | 38° |
| 2026-05-04 13:14 | 34.51673 | -14.47035 | 29024 ft | 499 kts | 38° |
| 2026-05-04 13:14 | 34.54229 | -14.44188 | 29203 ft | 499 kts | 38° |
| 2026-05-04 13:14 | 34.56783 | -14.41339 | 29379 ft | 499 kts | 38° |
| 2026-05-04 13:15 | 34.59339 | -14.38488 | 29569 ft | 499 kts | 37° |
| 2026-05-04 13:15 | 34.61890 | -14.35638 | 29744 ft | 499 kts | 37° |
| 2026-05-04 13:15 | 34.64445 | -14.32780 | 29921 ft | 499 kts | 37° |
| 2026-05-04 13:15 | 34.66997 | -14.29923 | 30126 ft | 499 kts | 37° |
| 2026-05-04 13:16 | 34.69549 | -14.27066 | 30296 ft | 499 kts | 37° |
| 2026-05-04 13:16 | 34.72098 | -14.24213 | 30459 ft | 498 kts | 37° |
| 2026-05-04 13:16 | 34.74645 | -14.21358 | 30621 ft | 498 kts | 37° |
| 2026-05-04 13:16 | 34.77190 | -14.18498 | 30770 ft | 498 kts | 37° |
| 2026-05-04 13:17 | 34.79731 | -14.15642 | 30920 ft | 497 kts | 37° |
| 2026-05-04 13:17 | 34.82237 | -14.12825 | 31085 ft | 497 kts | 37° |
| 2026-05-04 13:17 | 34.84807 | -14.09933 | 31232 ft | 496 kts | 37° |
| 2026-05-04 13:17 | 34.87305 | -14.07118 | 31383 ft | 496 kts | 37° |
| 2026-05-04 13:18 | 34.89837 | -14.04266 | 31538 ft | 495 kts | 37° |
| 2026-05-04 13:18 | 34.92362 | -14.01418 | 31689 ft | 495 kts | 37° |
| 2026-05-04 13:18 | 34.94886 | -13.98571 | 31893 ft | 494 kts | 37° |
| 2026-05-04 13:18 | 34.97399 | -13.95732 | 32098 ft | 492 kts | 37° |
| 2026-05-04 13:19 | 34.99904 | -13.92902 | 32267 ft | 491 kts | 37° |
| 2026-05-04 13:19 | 35.02403 | -13.90069 | 32413 ft | 490 kts | 37° |
| 2026-05-04 13:19 | 35.04897 | -13.87235 | 32552 ft | 490 kts | 37° |
| 2026-05-04 13:19 | 35.07389 | -13.84400 | 32699 ft | 489 kts | 37° |
| 2026-05-04 13:20 | 35.09880 | -13.81568 | 32822 ft | 489 kts | 37° |
| 2026-05-04 13:20 | 35.12370 | -13.78739 | 32950 ft | 489 kts | 37° |
| 2026-05-04 13:20 | 35.14858 | -13.75907 | 33082 ft | 489 kts | 37° |
| 2026-05-04 13:20 | 35.17344 | -13.73075 | 33214 ft | 488 kts | 37° |
| 2026-05-04 13:21 | 35.19829 | -13.70246 | 33350 ft | 488 kts | 37° |
| 2026-05-04 13:21 | 35.22312 | -13.67416 | 33479 ft | 488 kts | 37° |
| 2026-05-04 13:21 | 35.24790 | -13.64587 | 33613 ft | 487 kts | 37° |
| 2026-05-04 13:21 | 35.27264 | -13.61762 | 33747 ft | 487 kts | 37° |
| 2026-05-04 13:22 | 35.29737 | -13.58938 | 33872 ft | 486 kts | 37° |
| 2026-05-04 13:22 | 35.32209 | -13.56112 | 34019 ft | 485 kts | 37° |
| 2026-05-04 13:22 | 35.34669 | -13.53295 | 34157 ft | 485 kts | 37° |
| 2026-05-04 13:23 | 35.39619 | -13.47627 | 34190 ft | 489 kts | 37° |
| 2026-05-04 13:23 | 35.44568 | -13.41942 | 34189 ft | 492 kts | 37° |
| 2026-05-04 13:24 | 35.49560 | -13.36196 | 34187 ft | 492 kts | 37° |
| 2026-05-04 13:24 | 35.54549 | -13.30448 | 34186 ft | 492 kts | 37° |
| 2026-05-04 13:25 | 35.62025 | -13.21783 | 34190 ft | 493 kts | 37° |
| 2026-05-04 13:25 | 35.67016 | -13.16002 | 34194 ft | 493 kts | 37° |
| 2026-05-04 13:26 | 35.72010 | -13.10217 | 34207 ft | 493 kts | 37° |
| 2026-05-04 13:26 | 35.76996 | -13.04426 | 34204 ft | 493 kts | 37° |
| 2026-05-04 13:27 | 35.81993 | -12.98614 | 34223 ft | 494 kts | 37° |
| 2026-05-04 13:27 | 35.86977 | -12.92788 | 34211 ft | 494 kts | 37° |
| 2026-05-04 13:28 | 35.91958 | -12.86958 | 34203 ft | 494 kts | 37° |
| 2026-05-04 13:28 | 35.96939 | -12.81129 | 34205 ft | 494 kts | 37° |
| 2026-05-04 13:29 | 36.01917 | -12.75289 | 34211 ft | 494 kts | 37° |
| 2026-05-04 13:29 | 36.06899 | -12.69439 | 34204 ft | 494 kts | 37° |
| 2026-05-04 13:30 | 36.11848 | -12.63617 | 34187 ft | 489 kts | 38° |
| 2026-05-04 13:30 | 36.16761 | -12.57819 | 34194 ft | 488 kts | 38° |
| 2026-05-04 13:31 | 36.21643 | -12.52050 | 34200 ft | 488 kts | 38° |
| 2026-05-04 13:31 | 36.26556 | -12.46239 | 34198 ft | 488 kts | 38° |
| 2026-05-04 13:32 | 36.31465 | -12.40415 | 34201 ft | 488 kts | 38° |
| 2026-05-04 13:32 | 36.36371 | -12.34584 | 34199 ft | 487 kts | 39° |
| 2026-05-04 13:33 | 36.41233 | -12.28796 | 34187 ft | 483 kts | 39° |
| 2026-05-04 13:33 | 36.46079 | -12.23012 | 34189 ft | 483 kts | 39° |
| 2026-05-04 13:34 | 36.50934 | -12.17220 | 34191 ft | 484 kts | 39° |
| 2026-05-04 13:34 | 36.55781 | -12.11420 | 34199 ft | 484 kts | 39° |
| 2026-05-04 13:35 | 36.63046 | -12.02691 | 34224 ft | 484 kts | 39° |
| 2026-05-04 13:36 | 36.67887 | -11.96882 | 34181 ft | 483 kts | 38° |
| 2026-05-04 13:36 | 36.72726 | -11.91063 | 34184 ft | 484 kts | 39° |
| 2026-05-04 13:37 | 36.77564 | -11.85221 | 34185 ft | 484 kts | 39° |
| 2026-05-04 13:37 | 36.82396 | -11.79362 | 34187 ft | 484 kts | 39° |
| 2026-05-04 13:38 | 36.87193 | -11.73535 | 34184 ft | 485 kts | 39° |
| 2026-05-04 13:38 | 36.92034 | -11.67668 | 34200 ft | 485 kts | 38° |
| 2026-05-04 13:39 | 36.96873 | -11.61802 | 34189 ft | 484 kts | 38° |
| 2026-05-04 13:39 | 37.01705 | -11.55922 | 34188 ft | 484 kts | 39° |
| 2026-05-04 13:40 | 37.06526 | -11.50030 | 34186 ft | 484 kts | 39° |
| 2026-05-04 13:40 | 37.11346 | -11.44133 | 34186 ft | 484 kts | 39° |
| 2026-05-04 13:41 | 37.16161 | -11.38232 | 34186 ft | 484 kts | 39° |
| 2026-05-04 13:41 | 37.20961 | -11.32339 | 34171 ft | 481 kts | 38° |
| 2026-05-04 13:42 | 37.28133 | -11.23521 | 34177 ft | 481 kts | 38° |
| 2026-05-04 13:42 | 37.32915 | -11.17632 | 34177 ft | 482 kts | 38° |
| 2026-05-04 13:43 | 37.37696 | -11.11725 | 34173 ft | 482 kts | 38° |
| 2026-05-04 13:43 | 37.42478 | -11.05810 | 34174 ft | 482 kts | 38° |
| 2026-05-04 13:44 | 37.47252 | -10.99889 | 34191 ft | 482 kts | 38° |
| 2026-05-04 13:44 | 37.52016 | -10.93957 | 34200 ft | 481 kts | 38° |
| 2026-05-04 13:45 | 37.56777 | -10.88029 | 34184 ft | 481 kts | 38° |
| 2026-05-04 13:45 | 37.61537 | -10.82098 | 34182 ft | 481 kts | 38° |
| 2026-05-04 13:46 | 37.66292 | -10.76155 | 34174 ft | 481 kts | 38° |
| 2026-05-04 13:46 | 37.71046 | -10.70209 | 34197 ft | 481 kts | 38° |
| 2026-05-04 13:47 | 37.75794 | -10.64258 | 34186 ft | 480 kts | 38° |
| 2026-05-04 13:47 | 37.80499 | -10.58351 | 34176 ft | 480 kts | 38° |
| 2026-05-04 13:48 | 37.85230 | -10.52391 | 34181 ft | 480 kts | 39° |
| 2026-05-04 13:48 | 37.89961 | -10.46418 | 34171 ft | 480 kts | 39° |
| 2026-05-04 13:49 | 37.94688 | -10.40440 | 34162 ft | 480 kts | 39° |
| 2026-05-04 13:49 | 37.99416 | -10.34463 | 34162 ft | 480 kts | 39° |
| 2026-05-04 13:50 | 38.04143 | -10.28472 | 34155 ft | 480 kts | 39° |
| 2026-05-04 13:50 | 38.08893 | -10.22427 | 34149 ft | 480 kts | 39° |
| 2026-05-04 13:51 | 38.12815 | -10.17432 | 34165 ft | 481 kts | 39° |
| 2026-05-04 13:51 | 38.18302 | -10.10430 | 34146 ft | 481 kts | 39° |
| 2026-05-04 13:52 | 38.25389 | -10.01373 | 34167 ft | 482 kts | 39° |
| 2026-05-04 13:53 | 38.29345 | -9.96299 | 34155 ft | 482 kts | 39° |
| 2026-05-04 13:53 | 38.34059 | -9.90236 | 34151 ft | 482 kts | 39° |
| 2026-05-04 13:54 | 38.41132 | -9.81133 | 34169 ft | 482 kts | 39° |
| 2026-05-04 13:55 | 38.48209 | -9.71991 | 34148 ft | 483 kts | 39° |
| 2026-05-04 13:55 | 38.55269 | -9.62834 | 34135 ft | 482 kts | 39° |
| 2026-05-04 13:56 | 38.59940 | -9.56775 | 34134 ft | 482 kts | 39° |
| 2026-05-04 13:57 | 38.67000 | -9.47591 | 34136 ft | 483 kts | 40° |
| 2026-05-04 13:58 | 38.76421 | -9.35285 | 34153 ft | 484 kts | 40° |
| 2026-05-04 13:58 | 38.83485 | -9.26020 | 34137 ft | 485 kts | 40° |
| 2026-05-04 13:59 | 38.88195 | -9.19824 | 34133 ft | 485 kts | 40° |
| 2026-05-04 14:00 | 38.95249 | -9.10520 | 34128 ft | 485 kts | 40° |
| 2026-05-04 14:00 | 39.02313 | -9.01187 | 34140 ft | 486 kts | 40° |
| 2026-05-04 14:01 | 39.07022 | -8.94948 | 34122 ft | 486 kts | 40° |
| 2026-05-04 14:02 | 39.14090 | -8.85577 | 34106 ft | 486 kts | 40° |
| 2026-05-04 14:02 | 39.18796 | -8.79309 | 34098 ft | 486 kts | 40° |
| 2026-05-04 14:03 | 39.23497 | -8.73028 | 34090 ft | 487 kts | 40° |
| 2026-05-04 14:03 | 39.28206 | -8.66733 | 34088 ft | 488 kts | 40° |
| 2026-05-04 14:04 | 39.35281 | -8.57249 | 34074 ft | 489 kts | 40° |
| 2026-05-04 14:04 | 39.39998 | -8.50898 | 34077 ft | 490 kts | 40° |
| 2026-05-04 14:05 | 39.47081 | -8.41344 | 34080 ft | 491 kts | 40° |
| 2026-05-04 14:06 | 39.51805 | -8.34962 | 34092 ft | 491 kts | 40° |
| 2026-05-04 14:06 | 39.56525 | -8.28578 | 34058 ft | 491 kts | 40° |
| 2026-05-04 14:07 | 39.61250 | -8.22171 | 34054 ft | 492 kts | 40° |
| 2026-05-04 14:07 | 39.65980 | -8.15745 | 34051 ft | 493 kts | 40° |
| 2026-05-04 14:08 | 39.70713 | -8.09298 | 34055 ft | 493 kts | 41° |
| 2026-05-04 14:08 | 39.75439 | -8.02832 | 34080 ft | 494 kts | 41° |
| 2026-05-04 14:09 | 39.82526 | -7.93097 | 34064 ft | 494 kts | 41° |
| 2026-05-04 14:10 | 39.89622 | -7.83352 | 34043 ft | 495 kts | 41° |
| 2026-05-04 14:10 | 39.94356 | -7.76849 | 34045 ft | 495 kts | 41° |
| 2026-05-04 14:11 | 39.99087 | -7.70333 | 34052 ft | 495 kts | 41° |
| 2026-05-04 14:11 | 40.06164 | -7.60540 | 34062 ft | 494 kts | 41° |
| 2026-05-04 14:12 | 40.10873 | -7.53989 | 34042 ft | 495 kts | 42° |
| 2026-05-04 14:13 | 40.17944 | -7.44154 | 34033 ft | 495 kts | 42° |
| 2026-05-04 14:13 | 40.22657 | -7.37586 | 34032 ft | 495 kts | 42° |
| 2026-05-04 14:14 | 40.27368 | -7.31007 | 34052 ft | 496 kts | 42° |
| 2026-05-04 14:14 | 40.34400 | -7.21148 | 34031 ft | 496 kts | 42° |
| 2026-05-04 14:15 | 40.43808 | -7.07894 | 34017 ft | 497 kts | 43° |
| 2026-05-04 14:16 | 40.50857 | -6.97916 | 34008 ft | 497 kts | 43° |
| 2026-05-04 14:17 | 40.57908 | -6.87926 | 34012 ft | 497 kts | 43° |
| 2026-05-04 14:18 | 40.64955 | -6.77917 | 34005 ft | 497 kts | 43° |
| 2026-05-04 14:19 | 40.74341 | -6.64494 | 34011 ft | 498 kts | 43° |
| 2026-05-04 14:19 | 40.79040 | -6.57767 | 34004 ft | 499 kts | 43° |
| 2026-05-04 14:20 | 40.83741 | -6.51019 | 34001 ft | 499 kts | 43° |
| 2026-05-04 14:20 | 40.88432 | -6.44255 | 34002 ft | 500 kts | 43° |
| 2026-05-04 14:21 | 40.95482 | -6.34087 | 34002 ft | 500 kts | 43° |
| 2026-05-04 14:21 | 41.00277 | -6.27442 | 34019 ft | 497 kts | 37° |
| 2026-05-04 14:22 | 41.05422 | -6.21330 | 34011 ft | 497 kts | 37° |
| 2026-05-04 14:22 | 41.10533 | -6.15242 | 33993 ft | 497 kts | 37° |
| 2026-05-04 14:23 | 41.18235 | -6.06011 | 33988 ft | 498 kts | 38° |
| 2026-05-04 14:24 | 41.23365 | -5.99844 | 34011 ft | 497 kts | 38° |
| 2026-05-04 14:24 | 41.28491 | -5.93672 | 33999 ft | 497 kts | 38° |
| 2026-05-04 14:25 | 41.33612 | -5.87496 | 33995 ft | 497 kts | 38° |
| 2026-05-04 14:25 | 41.41297 | -5.78229 | 33992 ft | 497 kts | 38° |
| 2026-05-04 14:26 | 41.46404 | -5.72032 | 33999 ft | 496 kts | 38° |
| 2026-05-04 14:26 | 41.51381 | -5.65645 | 33992 ft | 499 kts | 47° |
| 2026-05-04 14:27 | 41.55090 | -5.57804 | 33991 ft | 503 kts | 65° |
| 2026-05-04 14:27 | 41.57929 | -5.49266 | 33993 ft | 503 kts | 65° |
| 2026-05-04 14:28 | 41.60767 | -5.40720 | 33995 ft | 503 kts | 65° |
| 2026-05-04 14:28 | 41.63601 | -5.32164 | 33993 ft | 503 kts | 65° |
| 2026-05-04 14:29 | 41.69240 | -5.15048 | 34027 ft | 502 kts | 65° |
| 2026-05-04 14:30 | 41.72037 | -5.06503 | 34023 ft | 501 kts | 65° |
| 2026-05-04 14:31 | 41.76200 | -4.93752 | 34021 ft | 500 kts | 66° |
| 2026-05-04 14:32 | 41.81744 | -4.76668 | 34024 ft | 500 kts | 66° |
| 2026-05-04 14:32 | 41.84510 | -4.68122 | 34010 ft | 500 kts | 66° |
| 2026-05-04 14:33 | 41.87264 | -4.59571 | 34008 ft | 500 kts | 66° |
| 2026-05-04 14:33 | 41.89591 | -4.50799 | 34003 ft | 499 kts | 73° |
| 2026-05-04 14:34 | 41.91605 | -4.41883 | 34017 ft | 499 kts | 74° |
| 2026-05-04 14:34 | 41.93583 | -4.32955 | 34013 ft | 498 kts | 74° |
| 2026-05-04 14:35 | 41.95560 | -4.24035 | 34012 ft | 498 kts | 74° |
| 2026-05-04 14:35 | 41.97538 | -4.15118 | 34012 ft | 498 kts | 74° |
| 2026-05-04 14:36 | 41.99516 | -4.06198 | 34013 ft | 498 kts | 74° |
| 2026-05-04 14:36 | 42.01524 | -3.97291 | 34013 ft | 498 kts | 73° |
| 2026-05-04 14:37 | 42.03546 | -3.88382 | 34013 ft | 498 kts | 73° |
| 2026-05-04 14:37 | 42.05211 | -3.80976 | 34005 ft | 498 kts | 74° |
| 2026-05-04 14:38 | 42.07200 | -3.72057 | 34019 ft | 497 kts | 74° |
| 2026-05-04 14:38 | 42.09171 | -3.63135 | 34020 ft | 497 kts | 74° |
| 2026-05-04 14:39 | 42.11141 | -3.54208 | 34018 ft | 497 kts | 74° |
| 2026-05-04 14:39 | 42.13105 | -3.45288 | 34022 ft | 497 kts | 74° |
| 2026-05-04 14:40 | 42.16053 | -3.31897 | 34025 ft | 497 kts | 75° |
| 2026-05-04 14:40 | 42.18000 | -3.22964 | 34023 ft | 496 kts | 75° |
| 2026-05-04 14:41 | 42.19936 | -3.14038 | 34021 ft | 496 kts | 75° |
| 2026-05-04 14:42 | 42.23793 | -2.96178 | 34013 ft | 495 kts | 75° |
| 2026-05-04 14:42 | 42.25707 | -2.87270 | 34017 ft | 494 kts | 75° |
| 2026-05-04 14:43 | 42.27609 | -2.78368 | 34017 ft | 493 kts | 75° |
| 2026-05-04 14:43 | 42.29496 | -2.69468 | 34013 ft | 493 kts | 75° |
| 2026-05-04 14:44 | 42.31375 | -2.60564 | 34001 ft | 493 kts | 76° |
| 2026-05-04 14:44 | 42.33250 | -2.51665 | 34001 ft | 492 kts | 76° |
| 2026-05-04 14:45 | 42.35122 | -2.42770 | 34002 ft | 492 kts | 76° |
| 2026-05-04 14:45 | 42.36982 | -2.33870 | 34003 ft | 492 kts | 76° |
| 2026-05-04 14:46 | 42.38816 | -2.25027 | 34002 ft | 492 kts | 77° |
| 2026-05-04 14:46 | 42.40670 | -2.16121 | 33997 ft | 491 kts | 77° |
| 2026-05-04 14:47 | 42.42512 | -2.07218 | 34000 ft | 491 kts | 77° |
| 2026-05-04 14:47 | 42.44345 | -1.98315 | 33998 ft | 491 kts | 77° |
| 2026-05-04 14:48 | 42.46161 | -1.89403 | 33973 ft | 491 kts | 78° |
| 2026-05-04 14:48 | 42.47969 | -1.80491 | 33986 ft | 491 kts | 78° |
| 2026-05-04 14:49 | 42.49782 | -1.71576 | 33993 ft | 491 kts | 78° |
| 2026-05-04 14:49 | 42.51585 | -1.62649 | 34001 ft | 491 kts | 78° |
| 2026-05-04 14:50 | 42.53371 | -1.53712 | 34004 ft | 491 kts | 78° |
| 2026-05-04 14:50 | 42.55150 | -1.44777 | 33977 ft | 491 kts | 79° |
| 2026-05-04 14:51 | 42.56942 | -1.35822 | 33981 ft | 492 kts | 79° |
| 2026-05-04 14:51 | 42.58745 | -1.26845 | 33976 ft | 493 kts | 79° |
| 2026-05-04 14:52 | 42.60542 | -1.17865 | 33965 ft | 493 kts | 79° |
| 2026-05-04 14:52 | 42.62333 | -1.08877 | 33969 ft | 494 kts | 79° |
| 2026-05-04 14:53 | 42.64113 | -0.99856 | 33962 ft | 495 kts | 79° |
| 2026-05-04 14:53 | 42.65869 | -0.90879 | 33951 ft | 495 kts | 79° |
| 2026-05-04 14:54 | 42.67644 | -0.81831 | 33955 ft | 496 kts | 79° |
| 2026-05-04 14:54 | 42.69410 | -0.72778 | 33923 ft | 495 kts | 80° |
| 2026-05-04 14:55 | 42.71168 | -0.63727 | 33966 ft | 495 kts | 80° |
| 2026-05-04 14:55 | 42.72912 | -0.54682 | 33972 ft | 494 kts | 81° |
| 2026-05-04 14:56 | 42.74652 | -0.45657 | 33980 ft | 494 kts | 80° |
| 2026-05-04 14:56 | 42.76385 | -0.36622 | 33972 ft | 493 kts | 81° |
| 2026-05-04 14:57 | 42.78105 | -0.27591 | 33983 ft | 493 kts | 81° |
| 2026-05-04 14:57 | 42.80515 | -0.18812 | 33979 ft | 501 kts | 64° |
| 2026-05-04 14:58 | 42.84624 | -0.11083 | 33978 ft | 506 kts | 53° |
| 2026-05-04 14:58 | 42.89099 | -0.03678 | 33992 ft | 506 kts | 53° |
| 2026-05-04 14:59 | 42.93566 | 0.03760 | 33928 ft | 507 kts | 53° |
| 2026-05-04 15:00 | 43.00265 | 0.14994 | 33947 ft | 510 kts | 53° |
| 2026-05-04 15:00 | 43.04745 | 0.22502 | 33974 ft | 509 kts | 53° |
| 2026-05-04 15:01 | 43.11421 | 0.33748 | 33984 ft | 510 kts | 53° |
| 2026-05-04 15:01 | 43.15881 | 0.41286 | 33936 ft | 509 kts | 54° |
| 2026-05-04 15:02 | 43.20340 | 0.48830 | 33951 ft | 510 kts | 54° |
| 2026-05-04 15:02 | 43.24801 | 0.56403 | 33969 ft | 510 kts | 54° |
| 2026-05-04 15:03 | 43.29252 | 0.63990 | 33976 ft | 510 kts | 54° |
| 2026-05-04 15:03 | 43.33690 | 0.71578 | 33976 ft | 510 kts | 54° |
| 2026-05-04 15:04 | 43.38134 | 0.79176 | 33922 ft | 509 kts | 54° |
| 2026-05-04 15:04 | 43.42559 | 0.86778 | 33956 ft | 509 kts | 54° |
| 2026-05-04 15:05 | 43.46983 | 0.94395 | 33966 ft | 509 kts | 54° |
| 2026-05-04 15:05 | 43.51394 | 1.01993 | 33961 ft | 508 kts | 54° |
| 2026-05-04 15:06 | 43.55794 | 1.09596 | 33952 ft | 507 kts | 55° |
| 2026-05-04 15:07 | 43.62334 | 1.20956 | 33971 ft | 505 kts | 54° |
| 2026-05-04 15:07 | 43.66717 | 1.28590 | 33986 ft | 503 kts | 54° |
| 2026-05-04 15:08 | 43.70976 | 1.36157 | 33981 ft | 500 kts | 56° |
| 2026-05-04 15:08 | 43.75079 | 1.43904 | 33971 ft | 499 kts | 57° |
| 2026-05-04 15:09 | 43.79139 | 1.51687 | 33961 ft | 499 kts | 57° |
| 2026-05-04 15:09 | 43.83234 | 1.59434 | 33934 ft | 499 kts | 56° |
| 2026-05-04 15:10 | 43.89411 | 1.71048 | 33936 ft | 498 kts | 56° |
| 2026-05-04 15:11 | 43.95551 | 1.82678 | 33939 ft | 498 kts | 56° |
| 2026-05-04 15:11 | 43.99544 | 1.90523 | 33939 ft | 497 kts | 58° |
| 2026-05-04 15:12 | 44.03451 | 1.98468 | 33915 ft | 499 kts | 57° |
| 2026-05-04 15:12 | 44.07366 | 2.06430 | 33929 ft | 499 kts | 57° |
| 2026-05-04 15:13 | 44.11306 | 2.14385 | 33938 ft | 499 kts | 57° |
| 2026-05-04 15:13 | 44.15224 | 2.22291 | 33938 ft | 499 kts | 57° |
| 2026-05-04 15:14 | 44.19165 | 2.30258 | 33920 ft | 500 kts | 57° |
| 2026-05-04 15:14 | 44.23096 | 2.38285 | 33927 ft | 502 kts | 57° |
| 2026-05-04 15:15 | 44.27026 | 2.46331 | 33935 ft | 502 kts | 57° |
| 2026-05-04 15:15 | 44.30965 | 2.54393 | 33954 ft | 503 kts | 57° |
| 2026-05-04 15:16 | 44.36881 | 2.66517 | 33962 ft | 504 kts | 57° |
| 2026-05-04 15:17 | 44.42789 | 2.78700 | 33949 ft | 505 kts | 57° |
| 2026-05-04 15:17 | 44.48701 | 2.90948 | 33971 ft | 507 kts | 57° |
| 2026-05-04 15:18 | 44.52647 | 2.99130 | 33972 ft | 507 kts | 58° |
| 2026-05-04 15:19 | 44.58539 | 3.11435 | 33970 ft | 507 kts | 58° |
| 2026-05-04 15:19 | 44.64175 | 3.23985 | 33986 ft | 506 kts | 63° |
| 2026-05-04 15:20 | 44.67524 | 3.32601 | 33986 ft | 506 kts | 64° |
| 2026-05-04 15:20 | 44.70858 | 3.41308 | 33994 ft | 506 kts | 63° |
| 2026-05-04 15:21 | 44.74280 | 3.49962 | 33994 ft | 506 kts | 63° |
| 2026-05-04 15:22 | 44.79488 | 3.62894 | 33997 ft | 506 kts | 63° |
| 2026-05-04 15:22 | 44.84628 | 3.75898 | 33999 ft | 506 kts | 63° |
| 2026-05-04 15:23 | 44.88030 | 3.84585 | 33980 ft | 506 kts | 63° |
| 2026-05-04 15:23 | 44.91446 | 3.93276 | 33990 ft | 507 kts | 63° |
| 2026-05-04 15:24 | 44.98263 | 4.10703 | 34016 ft | 507 kts | 63° |
| 2026-05-04 15:25 | 45.01652 | 4.19427 | 34027 ft | 506 kts | 63° |
| 2026-05-04 15:26 | 45.06726 | 4.32541 | 34028 ft | 507 kts | 63° |
| 2026-05-04 15:26 | 45.11233 | 4.44216 | 34022 ft | 508 kts | 63° |
| 2026-05-04 15:27 | 45.16288 | 4.57401 | 34044 ft | 507 kts | 63° |
| 2026-05-04 15:28 | 45.21330 | 4.70583 | 34022 ft | 507 kts | 63° |
| 2026-05-04 15:29 | 45.26357 | 4.83800 | 34029 ft | 507 kts | 63° |
| 2026-05-04 15:30 | 45.37965 | 5.14597 | 34040 ft | 505 kts | 63° |
| 2026-05-04 15:31 | 45.42929 | 5.27841 | 34048 ft | 506 kts | 63° |
| 2026-05-04 15:32 | 45.52540 | 5.48570 | 34048 ft | 503 kts | 40° |
| 2026-05-04 15:34 | 45.65586 | 5.65211 | 34085 ft | 503 kts | 41° |
| 2026-05-04 15:34 | 45.73376 | 5.75212 | 34076 ft | 501 kts | 41° |
| 2026-05-04 15:35 | 45.81147 | 5.85189 | 34082 ft | 500 kts | 41° |
| 2026-05-04 15:36 | 45.88897 | 5.95188 | 34070 ft | 499 kts | 41° |
| 2026-05-04 15:36 | 45.94052 | 6.01872 | 34077 ft | 499 kts | 41° |
| 2026-05-04 15:37 | 45.99208 | 6.08552 | 34078 ft | 499 kts | 41° |
| 2026-05-04 15:37 | 46.04373 | 6.15256 | 34052 ft | 503 kts | 42° |
| 2026-05-04 15:38 | 46.09585 | 6.22080 | 34059 ft | 509 kts | 43° |
| 2026-05-04 15:38 | 46.14702 | 6.29178 | 34058 ft | 511 kts | 45° |
| 2026-05-04 15:39 | 46.19719 | 6.36463 | 34064 ft | 512 kts | 45° |
| 2026-05-04 15:40 | 46.27253 | 6.47341 | 34062 ft | 510 kts | 45° |
| 2026-05-04 15:40 | 46.32304 | 6.54545 | 34072 ft | 510 kts | 44° |
| 2026-05-04 15:41 | 46.37344 | 6.61775 | 34080 ft | 510 kts | 45° |
| 2026-05-04 15:41 | 46.42378 | 6.69022 | 34092 ft | 510 kts | 45° |
| 2026-05-04 15:42 | 46.47408 | 6.76278 | 34099 ft | 510 kts | 45° |
| 2026-05-04 15:42 | 46.52432 | 6.83554 | 34091 ft | 510 kts | 45° |
| 2026-05-04 15:43 | 46.57273 | 6.91062 | 34077 ft | 508 kts | 52° |
| 2026-05-04 15:43 | 46.61714 | 6.99058 | 34088 ft | 508 kts | 52° |
| 2026-05-04 15:44 | 46.66142 | 7.07044 | 34091 ft | 507 kts | 52° |
| 2026-05-04 15:44 | 46.70563 | 7.15029 | 34089 ft | 506 kts | 52° |
| 2026-05-04 15:45 | 46.74977 | 7.23039 | 34093 ft | 506 kts | 52° |
| 2026-05-04 15:45 | 46.79379 | 7.31052 | 34066 ft | 506 kts | 52° |
| 2026-05-04 15:46 | 46.83766 | 7.39071 | 34047 ft | 505 kts | 52° |
| 2026-05-04 15:46 | 46.88144 | 7.47084 | 34054 ft | 504 kts | 52° |
| 2026-05-04 15:47 | 46.92516 | 7.55102 | 34058 ft | 504 kts | 52° |
| 2026-05-04 15:47 | 46.96875 | 7.63148 | 34054 ft | 503 kts | 52° |
| 2026-05-04 15:48 | 47.01209 | 7.71183 | 34050 ft | 502 kts | 52° |
| 2026-05-04 15:48 | 47.07705 | 7.83225 | 34027 ft | 501 kts | 52° |
| 2026-05-04 15:49 | 47.12025 | 7.91267 | 34028 ft | 502 kts | 53° |
| 2026-05-04 15:49 | 47.15941 | 7.99710 | 34015 ft | 500 kts | 59° |
| 2026-05-04 15:50 | 47.19631 | 8.08379 | 34008 ft | 500 kts | 59° |
| 2026-05-04 15:50 | 47.23324 | 8.17036 | 34007 ft | 500 kts | 59° |
| 2026-05-04 15:51 | 47.27001 | 8.25712 | 34013 ft | 500 kts | 59° |
| 2026-05-04 15:51 | 47.31290 | 8.33741 | 33993 ft | 500 kts | 43° |
| 2026-05-04 15:52 | 47.36888 | 8.39781 | 34007 ft | 499 kts | 32° |
| 2026-05-04 15:52 | 47.42708 | 8.45391 | 33997 ft | 499 kts | 33° |
| 2026-05-04 15:53 | 47.48511 | 8.51026 | 33996 ft | 499 kts | 33° |
| 2026-05-04 15:53 | 47.54313 | 8.56661 | 33995 ft | 499 kts | 33° |
| 2026-05-04 15:54 | 47.60116 | 8.62317 | 33992 ft | 499 kts | 33° |
| 2026-05-04 15:54 | 47.65921 | 8.67991 | 33993 ft | 500 kts | 33° |
| 2026-05-04 15:55 | 47.71684 | 8.73645 | 33997 ft | 500 kts | 33° |
| 2026-05-04 15:55 | 47.77452 | 8.79319 | 33984 ft | 501 kts | 33° |
| 2026-05-04 15:56 | 47.83257 | 8.85039 | 33987 ft | 501 kts | 33° |
| 2026-05-04 15:56 | 47.89064 | 8.90777 | 33989 ft | 501 kts | 33° |
| 2026-05-04 15:57 | 47.94859 | 8.96520 | 33992 ft | 499 kts | 33° |
| 2026-05-04 15:57 | 48.00627 | 9.02251 | 33993 ft | 497 kts | 33° |
| 2026-05-04 15:58 | 48.06375 | 9.07981 | 33994 ft | 497 kts | 33° |
| 2026-05-04 15:58 | 48.12120 | 9.13724 | 33998 ft | 496 kts | 32° |
| 2026-05-04 15:59 | 48.18332 | 9.18067 | 33991 ft | 492 kts | 14° |
| 2026-05-04 15:59 | 48.25037 | 9.19691 | 33992 ft | 488 kts | 4° |
| 2026-05-04 16:00 | 48.31795 | 9.20816 | 33998 ft | 489 kts | 4° |
| 2026-05-04 16:00 | 48.38520 | 9.21959 | 33995 ft | 490 kts | 4° |
| 2026-05-04 16:01 | 48.45295 | 9.23117 | 33995 ft | 490 kts | 4° |
| 2026-05-04 16:01 | 48.52073 | 9.24271 | 33999 ft | 491 kts | 4° |
| 2026-05-04 16:02 | 48.58861 | 9.25425 | 34000 ft | 491 kts | 4° |
| 2026-05-04 16:03 | 48.69012 | 9.27069 | 33999 ft | 490 kts | 3° |
| 2026-05-04 16:03 | 48.75802 | 9.28074 | 34002 ft | 490 kts | 3° |
| 2026-05-04 16:04 | 48.82583 | 9.29076 | 34000 ft | 490 kts | 3° |
| 2026-05-04 16:04 | 48.92749 | 9.30644 | 33996 ft | 489 kts | 3° |
| 2026-05-04 16:05 | 48.99516 | 9.31707 | 34004 ft | 488 kts | 3° |
| 2026-05-04 16:06 | 49.09655 | 9.33278 | 34006 ft | 488 kts | 3° |
| 2026-05-04 16:07 | 49.23160 | 9.35373 | 34010 ft | 487 kts | 3° |
| 2026-05-04 16:08 | 49.36645 | 9.37484 | 34009 ft | 488 kts | 3° |
| 2026-05-04 16:09 | 49.53570 | 9.40146 | 34004 ft | 490 kts | 3° |
| 2026-05-04 16:10 | 49.67111 | 9.42298 | 34016 ft | 491 kts | 2° |
| 2026-05-04 16:11 | 49.80715 | 9.44464 | 34015 ft | 491 kts | 3° |
| 2026-05-04 16:12 | 50.00022 | 9.47569 | 34003 ft | 491 kts | 2° |
| 2026-05-04 16:13 | 50.06659 | 9.49933 | 34007 ft | 498 kts | 20° |
| 2026-05-04 16:13 | 50.12669 | 9.55333 | 33996 ft | 502 kts | 34° |
| 2026-05-04 16:14 | 50.24020 | 9.68126 | 33997 ft | 504 kts | 34° |
| 2026-05-04 16:16 | 50.38227 | 9.84206 | 34003 ft | 504 kts | 34° |
| 2026-05-04 16:16 | 50.45899 | 9.95497 | 34010 ft | 506 kts | 45° |
| 2026-05-04 16:17 | 50.50730 | 10.03535 | 34006 ft | 506 kts | 45° |
| 2026-05-04 16:18 | 50.60378 | 10.19647 | 34005 ft | 506 kts | 45° |
| 2026-05-04 16:19 | 50.66893 | 10.32443 | 33002 ft | 495 kts | 62° |
| 2026-05-04 16:19 | 50.70133 | 10.41919 | 32159 ft | 489 kts | 62° |
| 2026-05-04 16:20 | 50.75005 | 10.56061 | 30839 ft | 489 kts | 62° |
| 2026-05-04 16:20 | 50.78247 | 10.65523 | 29939 ft | 490 kts | 62° |
| 2026-05-04 16:21 | 50.83154 | 10.79723 | 28431 ft | 490 kts | 60° |
| 2026-05-04 16:22 | 50.86633 | 10.88963 | 27381 ft | 486 kts | 59° |
| 2026-05-04 16:22 | 50.91787 | 11.02572 | 25862 ft | 474 kts | 60° |
| 2026-05-04 16:23 | 50.96685 | 11.15971 | 24400 ft | 462 kts | 60° |
| 2026-05-04 16:24 | 51.03037 | 11.33366 | 22391 ft | 448 kts | 60° |
| 2026-05-04 16:25 | 51.06134 | 11.41863 | 21346 ft | 441 kts | 60° |
| 2026-05-04 16:26 | 51.12130 | 11.58475 | 19341 ft | 426 kts | 61° |
| 2026-05-04 16:26 | 51.16207 | 11.70886 | 17889 ft | 417 kts | 63° |
| 2026-05-04 16:27 | 51.18820 | 11.79056 | 16832 ft | 410 kts | 63° |
| 2026-05-04 16:28 | 51.22545 | 11.91073 | 15339 ft | 400 kts | 71° |
| 2026-05-04 16:28 | 51.23674 | 12.04014 | 13869 ft | 389 kts | 87° |
| 2026-05-04 16:29 | 51.24480 | 12.20918 | 11798 ft | 373 kts | 87° |
| 2026-05-04 16:30 | 51.25051 | 12.33066 | 10315 ft | 359 kts | 87° |
| 2026-05-04 16:31 | 51.26083 | 12.40533 | 9979 ft | 332 kts | 66° |
| 2026-05-04 16:31 | 51.28678 | 12.50088 | 8580 ft | 300 kts | 67° |
| 2026-05-04 16:32 | 51.31066 | 12.59268 | 7467 ft | 295 kts | 75° |
| 2026-05-04 16:33 | 51.31511 | 12.65668 | 6730 ft | 291 kts | 87° |
| 2026-05-04 16:33 | 51.31783 | 12.72084 | 5976 ft | 288 kts | 86° |
| 2026-05-04 16:34 | 51.32762 | 12.78141 | 5154 ft | 285 kts | 48° |
| 2026-05-04 16:34 | 51.34309 | 12.79993 | 4857 ft | 275 kts | 19° |
| 2026-05-04 16:35 | 51.39878 | 12.80114 | 4418 ft | 268 kts | 354° |
| 2026-05-04 16:35 | 51.44847 | 12.77295 | 3988 ft | 260 kts | 301° |
| 2026-05-04 16:36 | 51.45440 | 12.74600 | 4002 ft | 259 kts | 274° |
| 2026-05-04 16:36 | 51.45236 | 12.68845 | 4001 ft | 254 kts | 265° |
| 2026-05-04 16:37 | 51.44993 | 12.63512 | 4021 ft | 227 kts | 266° |
| 2026-05-04 16:37 | 51.44887 | 12.61031 | 4000 ft | 220 kts | 266° |
| 2026-05-04 16:37 | 51.44676 | 12.56143 | 3951 ft | 219 kts | 265° |
| 2026-05-04 16:38 | 51.44466 | 12.51327 | 3453 ft | 217 kts | 266° |
| 2026-05-04 16:39 | 51.44154 | 12.44261 | 2622 ft | 202 kts | 265° |
| 2026-05-04 16:39 | 51.43970 | 12.40126 | 2122 ft | 172 kts | 265° |
| 2026-05-04 16:40 | 51.43810 | 12.36561 | 1703 ft | 153 kts | 266° |
| 2026-05-04 16:40 | 51.43657 | 12.33190 | 1292 ft | 151 kts | 266° |
| 2026-05-04 16:41 | 51.43502 | 12.29782 | 878 ft | 156 kts | 266° |
| 2026-05-04 16:41 | 51.43273 | 12.24711 | 440 ft | 120 kts | 265° |
| 2026-05-04 16:42 | 51.43154 | 12.22216 | 433 ft | 41 kts | 265° |
| 2026-05-04 16:43 | 51.43077 | 12.21597 | 418 ft | 25 kts | 233° |
| 2026-05-04 16:43 | 51.42933 | 12.21355 | 422 ft | 12 kts | 225° |
| 2026-05-04 16:43 | 51.42876 | 12.21282 | 435 ft | 9 kts | 205° |
| 2026-05-04 16:44 | 51.42426 | 12.21081 | 425 ft | 15 kts | 195° |
| 2026-05-04 16:45 | 51.42227 | 12.20997 | 424 ft | 14 kts | 196° |
| 2026-05-04 16:46 | 51.41966 | 12.21098 | 419 ft | 15 kts | 105° |
| 2026-05-04 16:46 | 51.41916 | 12.21391 | 435 ft | 13 kts | 105° |
| 2026-05-04 16:47 | 51.41869 | 12.21663 | 437 ft | 14 kts | 105° |
| 2026-05-04 16:47 | 51.41812 | 12.21997 | 434 ft | 11 kts | 105° |
| 2026-05-04 16:48 | 51.41892 | 12.22107 | 436 ft | 0 kts | 16° |